Time;durP1;ratioP1;P1;durP2;ratioP2;P2;SDS_P1;SDS_P2;PMS_P1;PMS_P2;Temp;Humidity;BMP_temperature;BMP_pressure;BME280_temperature;BME280_humidity;BME280_pressure;Samples;Min_cycle;Max_cycle;Signal;HPM_P1;HPM_P2
2023/05/03 00:01:09;;;;;;;8.75;6.00;;;11.20;99.90;;;;;;5056664;28;20044;-85
2023/05/03 00:03:36;;;;;;;8.13;6.07;;;11.20;99.90;;;;;;5034453;28;20049;-83
2023/05/03 00:06:11;;;;;;;7.80;5.88;;;11.10;99.90;;;;;;5054653;28;20061;-85
2023/05/03 00:08:38;;;;;;;7.50;6.28;;;11.10;99.90;;;;;;5035280;28;20073;-85
2023/05/03 00:11:05;;;;;;;7.75;6.18;;;11.10;99.90;;;;;;5030807;28;20108;-83
2023/05/03 00:13:32;;;;;;;7.90;6.30;;;11.10;99.90;;;;;;5049683;28;20117;-85
2023/05/03 00:15:59;;;;;;;9.23;5.55;;;11.00;99.90;;;;;;5031903;28;20057;-83
2023/05/03 00:18:26;;;;;;;9.25;5.88;;;11.00;99.90;;;;;;5031878;28;20433;-83
2023/05/03 00:20:54;;;;;;;6.97;5.90;;;11.00;99.90;;;;;;5033054;28;20048;-84
2023/05/03 00:23:20;;;;;;;9.27;5.90;;;10.90;99.90;;;;;;5028334;28;20049;-81
2023/05/03 00:25:55;;;;;;;6.35;5.13;;;10.90;99.90;;;;;;5032507;28;20057;-84
2023/05/03 00:28:22;;;;;;;7.18;5.13;;;10.90;99.90;;;;;;5022058;28;20076;-83
2023/05/03 00:30:48;;;;;;;8.85;6.57;;;10.90;99.90;;;;;;5031241;28;20040;-82
2023/05/03 00:33:16;;;;;;;6.53;5.68;;;10.90;99.90;;;;;;5032668;28;20056;-84
2023/05/03 00:35:43;;;;;;;6.65;5.90;;;10.80;99.90;;;;;;5031727;28;20041;-82
2023/05/03 00:38:10;;;;;;;8.60;5.47;;;10.80;99.90;;;;;;5034701;28;20073;-85
2023/05/03 00:40:37;;;;;;;7.40;5.53;;;10.80;99.90;;;;;;5035326;28;20041;-84
2023/05/03 00:43:04;;;;;;;7.57;5.03;;;10.80;99.90;;;;;;5038063;28;20100;-84
2023/05/03 00:45:33;;;;;;;6.95;5.60;;;10.80;99.90;;;;;;5039155;28;20055;-86
2023/05/03 00:48:00;;;;;;;5.93;4.88;;;10.70;99.90;;;;;;5017246;28;20479;-83
2023/05/03 00:50:28;;;;;;;6.60;5.20;;;10.70;99.90;;;;;;5029800;28;20064;-85
2023/05/03 00:52:55;;;;;;;8.80;5.85;;;10.70;99.90;;;;;;5025699;28;20049;-85
2023/05/03 00:55:22;;;;;;;7.88;5.63;;;10.70;99.90;;;;;;5043535;28;20493;-83
2023/05/03 00:57:49;;;;;;;7.28;6.10;;;10.70;99.90;;;;;;5030875;28;20049;-83
2023/05/03 01:00:16;;;;;;;7.95;5.20;;;10.60;99.90;;;;;;5027406;28;20049;-84
2023/05/03 01:02:43;;;;;;;6.90;5.10;;;10.60;99.90;;;;;;5041742;28;20057;-85
2023/05/03 01:05:10;;;;;;;8.48;5.38;;;10.50;99.90;;;;;;5026086;28;20046;-84
2023/05/03 01:08:05;;;;;;;8.65;5.82;;;10.50;99.90;;;;;;5036087;28;20463;-84
2023/05/03 01:10:35;;;;;;;8.27;5.38;;;10.50;99.90;;;;;;5033930;28;20045;-83
2023/05/03 01:13:38;;;;;;;10.15;5.78;;;10.50;99.90;;;;;;5031304;28;20044;-85
2023/05/03 01:16:25;;;;;;;9.52;5.70;;;10.50;99.90;;;;;;5051387;28;20053;-83
2023/05/03 01:18:54;;;;;;;8.73;5.22;;;10.40;99.90;;;;;;5052226;28;20060;-81
2023/05/03 01:21:22;;;;;;;8.55;5.07;;;10.40;99.90;;;;;;5027700;28;20042;-84
2023/05/03 01:24:17;;;;;;;6.88;5.10;;;10.40;99.90;;;;;;5050697;28;20042;-84
2023/05/03 01:26:43;;;;;;;7.07;5.50;;;10.40;99.90;;;;;;5048856;28;20041;-84
2023/05/03 01:29:10;;;;;;;8.75;6.18;;;10.30;99.90;;;;;;5029070;28;20060;-85
2023/05/03 01:31:56;;;;;;;7.32;5.57;;;10.30;99.90;;;;;;5026826;28;20061;-85
2023/05/03 01:34:32;;;;;;;6.97;4.97;;;10.20;99.90;;;;;;5021408;28;20132;-84
2023/05/03 01:37:02;;;;;;;6.53;5.22;;;10.20;99.90;;;;;;5042315;28;20052;-87
2023/05/03 01:39:43;;;;;;;7.70;5.03;;;10.20;99.90;;;;;;5051320;28;20067;-84
2023/05/03 01:42:11;;;;;;;7.32;5.38;;;10.20;99.90;;;;;;5062014;28;20104;-85
2023/05/03 01:44:39;;;;;;;7.80;5.43;;;10.10;99.90;;;;;;5043017;28;20425;-84
2023/05/03 01:47:06;;;;;;;9.38;5.63;;;10.10;99.90;;;;;;5059691;28;20053;-83
2023/05/03 01:49:34;;;;;;;9.50;5.53;;;10.10;99.90;;;;;;5037359;28;20056;-84
2023/05/03 01:52:00;;;;;;;8.05;4.95;;;10.10;99.90;;;;;;5035733;28;20083;-84
2023/05/03 01:54:27;;;;;;;6.68;5.43;;;10.10;99.90;;;;;;5034951;28;20051;-85
2023/05/03 01:56:54;;;;;;;6.47;5.22;;;10.00;99.90;;;;;;5035353;28;20069;-85
2023/05/03 01:59:21;;;;;;;10.32;5.78;;;10.00;99.90;;;;;;5034643;28;20037;-83
2023/05/03 02:01:47;;;;;;;8.77;5.93;;;10.00;99.90;;;;;;5028468;28;20049;-84
2023/05/03 02:04:14;;;;;;;8.63;5.97;;;10.00;99.90;;;;;;5050123;28;20436;-82
2023/05/03 02:06:41;;;;;;;7.57;6.03;;;10.00;99.90;;;;;;5026217;28;20072;-82
2023/05/03 02:09:08;;;;;;;9.43;6.00;;;9.90;99.90;;;;;;5050988;28;20056;-84
2023/05/03 02:11:34;;;;;;;9.30;5.50;;;9.90;99.90;;;;;;5021409;28;20501;-82
2023/05/03 02:14:01;;;;;;;7.78;6.13;;;9.90;99.90;;;;;;5026343;28;20041;-82
2023/05/03 02:16:28;;;;;;;9.48;5.88;;;9.90;99.90;;;;;;5024874;28;20364;-82
2023/05/03 02:18:58;;;;;;;7.65;5.43;;;9.90;99.90;;;;;;5047463;28;20136;-82
2023/05/03 02:21:25;;;;;;;8.27;5.75;;;9.90;99.90;;;;;;5028973;28;20111;-84
2023/05/03 02:23:53;;;;;;;8.43;6.28;;;9.80;99.90;;;;;;5036604;28;20040;-85
2023/05/03 02:26:20;;;;;;;9.65;6.43;;;9.80;99.90;;;;;;5032069;28;20072;-84
2023/05/03 02:28:46;;;;;;;8.70;5.38;;;9.80;99.90;;;;;;5053225;28;20429;-83
2023/05/03 02:31:13;;;;;;;7.40;6.05;;;9.70;99.90;;;;;;5030461;28;20045;-83
2023/05/03 02:33:40;;;;;;;11.25;6.18;;;9.70;99.90;;;;;;5058909;28;20037;-84
2023/05/03 02:36:07;;;;;;;11.93;6.63;;;9.70;99.90;;;;;;5048438;28;20114;-85
2023/05/03 02:38:33;;;;;;;7.30;5.50;;;9.70;99.90;;;;;;5036279;28;20423;-85
2023/05/03 02:41:00;;;;;;;12.02;6.20;;;9.70;99.90;;;;;;5030548;28;20046;-84
2023/05/03 02:43:27;;;;;;;11.88;6.78;;;9.70;99.90;;;;;;5027132;28;20046;-84
2023/05/03 02:45:53;;;;;;;8.43;6.00;;;9.70;99.90;;;;;;5032227;28;20045;-82
2023/05/03 02:48:20;;;;;;;8.82;5.65;;;9.70;99.90;;;;;;5036912;28;20048;-84
2023/05/03 02:50:47;;;;;;;8.50;5.38;;;9.60;99.90;;;;;;5044916;28;20052;-84
2023/05/03 02:53:14;;;;;;;7.18;5.47;;;9.60;99.90;;;;;;5038345;28;20091;-82
2023/05/03 02:55:40;;;;;;;6.85;5.90;;;9.60;99.90;;;;;;5054127;28;20492;-84
2023/05/03 02:58:08;;;;;;;8.55;6.03;;;9.50;99.90;;;;;;5053993;28;20133;-84
2023/05/03 03:00:35;;;;;;;7.82;5.72;;;9.50;99.90;;;;;;5056059;28;20043;-82
2023/05/03 03:03:02;;;;;;;6.97;5.50;;;9.50;99.90;;;;;;5036368;28;20051;-83
2023/05/03 03:05:29;;;;;;;11.73;6.22;;;9.50;99.90;;;;;;5037153;28;20046;-82
2023/05/03 03:07:55;;;;;;;9.38;6.60;;;9.50;99.90;;;;;;5050181;28;20052;-83
2023/05/03 03:10:22;;;;;;;10.18;6.43;;;9.40;99.90;;;;;;5034675;28;20070;-83
2023/05/03 03:12:49;;;;;;;9.43;6.57;;;9.40;99.90;;;;;;5031340;28;20073;-82
2023/05/03 03:15:16;;;;;;;8.82;6.90;;;9.40;99.90;;;;;;5047265;28;20226;-82
2023/05/03 03:17:42;;;;;;;11.73;7.45;;;9.40;99.90;;;;;;5045469;28;20105;-84
2023/05/03 03:20:12;;;;;;;12.27;8.80;;;9.40;99.90;;;;;;5026219;28;20099;-84
2023/05/03 03:22:39;;;;;;;14.75;9.48;;;9.30;99.90;;;;;;5029225;28;20123;-85
2023/05/03 03:25:06;;;;;;;14.23;8.40;;;9.30;99.90;;;;;;5044209;28;20133;-84
2023/05/03 03:27:33;;;;;;;14.68;8.85;;;9.30;99.90;;;;;;5029039;28;20084;-82
2023/05/03 03:29:59;;;;;;;12.93;8.93;;;9.30;99.90;;;;;;5065054;28;20049;-84
2023/05/03 03:32:27;;;;;;;13.55;9.05;;;9.30;99.90;;;;;;5043173;28;20091;-85
2023/05/03 03:34:54;;;;;;;14.32;10.20;;;9.30;99.90;;;;;;5055917;28;20059;-84
2023/05/03 03:37:22;;;;;;;17.63;10.20;;;9.30;99.90;;;;;;5040207;28;20049;-84
2023/05/03 03:39:48;;;;;;;15.50;9.07;;;9.30;99.90;;;;;;5036143;28;20064;-83
2023/05/03 03:42:15;;;;;;;13.63;9.98;;;9.30;99.90;;;;;;5052443;28;20049;-84
2023/05/03 03:44:44;;;;;;;17.77;9.75;;;9.30;99.90;;;;;;5029778;28;20046;-84
2023/05/03 03:47:11;;;;;;;14.57;9.38;;;9.20;99.90;;;;;;5035037;28;20045;-84
2023/05/03 03:49:38;;;;;;;16.45;9.82;;;9.20;99.90;;;;;;5041695;28;20064;-84
2023/05/03 03:52:05;;;;;;;14.45;8.82;;;9.20;99.90;;;;;;5025477;28;20088;-83
2023/05/03 03:54:33;;;;;;;13.70;9.10;;;9.20;99.90;;;;;;5045239;28;20071;-84
2023/05/03 03:57:01;;;;;;;17.75;10.38;;;9.20;99.90;;;;;;5045624;28;20055;-84
2023/05/03 03:59:28;;;;;;;16.65;10.93;;;9.20;99.90;;;;;;5011117;28;20040;-84
2023/05/03 04:01:55;;;;;;;19.02;11.50;;;9.20;99.90;;;;;;5026059;28;20051;-84
2023/05/03 04:04:22;;;;;;;17.95;11.32;;;9.20;99.90;;;;;;5056700;28;20127;-85
2023/05/03 04:06:49;;;;;;;19.13;11.35;;;9.10;99.90;;;;;;5036055;28;20045;-83
2023/05/03 04:09:16;;;;;;;20.73;10.45;;;9.10;99.90;;;;;;5033062;28;20111;-84
2023/05/03 04:11:44;;;;;;;18.23;11.50;;;9.10;99.90;;;;;;5039298;28;20041;-83
2023/05/03 04:14:11;;;;;;;17.77;10.40;;;9.10;99.90;;;;;;5034107;28;20045;-83
2023/05/03 04:16:38;;;;;;;18.13;11.65;;;9.10;99.90;;;;;;5035084;28;20048;-83
2023/05/03 04:19:04;;;;;;;15.02;9.98;;;9.00;99.90;;;;;;5032566;28;20041;-83
2023/05/03 04:21:31;;;;;;;18.75;11.77;;;9.00;99.90;;;;;;5036060;28;20412;-81
2023/05/03 04:23:59;;;;;;;16.55;10.93;;;9.00;99.90;;;;;;5040374;28;20048;-84
2023/05/03 04:26:26;;;;;;;21.55;12.02;;;9.00;99.90;;;;;;5056165;28;20359;-82
2023/05/03 04:28:58;;;;;;;19.42;11.35;;;9.00;99.90;;;;;;5032361;28;20049;-84
2023/05/03 04:31:25;;;;;;;18.58;11.52;;;8.90;99.90;;;;;;5032896;28;20127;-84
2023/05/03 04:33:52;;;;;;;23.92;12.43;;;8.80;99.90;;;;;;5024680;28;20125;-83
2023/05/03 04:36:21;;;;;;;20.50;11.65;;;8.80;99.90;;;;;;5027019;28;20064;-84
2023/05/03 04:38:48;;;;;;;19.65;12.45;;;8.70;99.90;;;;;;5054226;28;20396;-84
2023/05/03 04:41:16;;;;;;;19.65;11.85;;;8.70;99.90;;;;;;5041850;28;20044;-84
2023/05/03 04:43:42;;;;;;;17.17;11.25;;;8.60;99.90;;;;;;5044222;28;20045;-84
2023/05/03 04:46:09;;;;;;;21.80;12.05;;;8.60;99.90;;;;;;5043915;28;20495;-81
2023/05/03 04:48:36;;;;;;;15.88;10.65;;;8.60;99.90;;;;;;5038448;28;20202;-82
2023/05/03 04:51:03;;;;;;;20.75;12.50;;;8.70;99.90;;;;;;5054003;28;20053;-83
2023/05/03 04:53:30;;;;;;;15.70;11.18;;;8.70;99.90;;;;;;5053588;28;20535;-83
2023/05/03 04:55:57;;;;;;;18.95;12.85;;;8.70;99.90;;;;;;5055958;28;20057;-81
2023/05/03 04:58:23;;;;;;;20.02;11.70;;;8.80;99.90;;;;;;5055786;28;20065;-83
2023/05/03 05:00:50;;;;;;;17.90;12.00;;;8.90;99.90;;;;;;5043285;28;20041;-84
2023/05/03 05:03:17;;;;;;;21.08;11.05;;;9.00;99.90;;;;;;5037901;28;20061;-85
2023/05/03 05:05:45;;;;;;;17.60;11.25;;;9.00;99.90;;;;;;5031235;28;20062;-83
2023/05/03 05:08:11;;;;;;;15.77;11.13;;;9.20;99.90;;;;;;5046302;28;20044;-84
2023/05/03 05:10:41;;;;;;;15.48;10.98;;;9.30;99.90;;;;;;5046978;28;20046;-82
2023/05/03 05:13:08;;;;;;;19.13;11.35;;;9.40;99.90;;;;;;5045336;28;20119;-84
2023/05/03 05:15:35;;;;;;;19.65;10.88;;;9.50;99.90;;;;;;5041049;28;20041;-83
2023/05/03 05:18:01;;;;;;;13.10;9.82;;;9.50;99.90;;;;;;5054329;28;20063;-83
2023/05/03 05:20:28;;;;;;;18.75;11.18;;;9.50;99.90;;;;;;5056349;28;20063;-83
2023/05/03 05:22:55;;;;;;;14.80;10.55;;;9.60;99.90;;;;;;5043920;28;20068;-84
2023/05/03 05:25:21;;;;;;;17.50;10.93;;;9.60;99.90;;;;;;5056792;28;20041;-85
2023/05/03 05:27:48;;;;;;;15.45;11.10;;;9.60;99.90;;;;;;5038266;28;20052;-82
2023/05/03 05:30:15;;;;;;;18.33;11.27;;;9.70;99.90;;;;;;5047550;28;20050;-84
2023/05/03 05:32:41;;;;;;;15.48;11.02;;;9.70;99.90;;;;;;5041584;28;20053;-84
2023/05/03 05:35:08;;;;;;;13.88;10.73;;;9.70;99.90;;;;;;5049497;28;20049;-83
2023/05/03 05:37:35;;;;;;;15.60;11.30;;;9.70;99.90;;;;;;5050425;28;20100;-83
2023/05/03 05:40:03;;;;;;;17.35;12.02;;;9.70;99.90;;;;;;5034513;28;20051;-84
2023/05/03 05:42:30;;;;;;;19.00;10.80;;;9.70;99.90;;;;;;5033512;28;20064;-83
2023/05/03 05:44:57;;;;;;;16.98;11.43;;;9.80;99.90;;;;;;5043258;28;20056;-83
2023/05/03 05:47:24;;;;;;;19.27;11.75;;;9.80;99.90;;;;;;5028473;28;20424;-83
2023/05/03 05:49:51;;;;;;;17.52;11.68;;;9.80;99.90;;;;;;5040941;28;20107;-83
2023/05/03 05:52:17;;;;;;;17.88;12.13;;;9.90;99.90;;;;;;5038497;28;20147;-84
2023/05/03 05:54:44;;;;;;;19.30;12.20;;;9.90;99.90;;;;;;5036200;28;20049;-82
2023/05/03 05:57:12;;;;;;;17.17;11.45;;;9.90;99.90;;;;;;5042275;28;20049;-83
2023/05/03 05:59:39;;;;;;;15.10;11.15;;;10.00;99.90;;;;;;5027596;28;20080;-84
2023/05/03 06:02:15;;;;;;;18.25;12.63;;;10.00;99.90;;;;;;5035419;28;20048;-83
2023/05/03 06:04:42;;;;;;;18.67;11.40;;;9.90;99.90;;;;;;5044091;28;20048;-84
2023/05/03 06:07:09;;;;;;;18.13;12.02;;;9.90;99.90;;;;;;5045325;28;20045;-84
2023/05/03 06:09:36;;;;;;;19.25;12.52;;;9.90;99.90;;;;;;5027693;28;20412;-84
2023/05/03 06:12:02;;;;;;;20.15;12.02;;;10.00;99.90;;;;;;5022653;28;20054;-84
2023/05/03 06:14:29;;;;;;;18.23;12.18;;;10.00;99.90;;;;;;5027025;28;20053;-84
2023/05/03 06:16:57;;;;;;;17.30;12.20;;;10.10;99.90;;;;;;5048068;28;20045;-84
2023/05/03 06:19:24;;;;;;;18.98;12.27;;;10.10;99.90;;;;;;5054060;28;20124;-84
2023/05/03 06:21:51;;;;;;;20.45;12.75;;;10.10;99.90;;;;;;5049035;28;20061;-84
2023/05/03 06:24:20;;;;;;;15.95;12.20;;;10.10;99.90;;;;;;5041278;28;20045;-85
2023/05/03 06:26:47;;;;;;;16.75;11.88;;;10.20;99.90;;;;;;5055427;28;20044;-82
2023/05/03 06:29:14;;;;;;;19.80;12.02;;;10.20;99.90;;;;;;5042488;28;20176;-83
2023/05/03 06:31:41;;;;;;;14.73;11.10;;;10.30;99.90;;;;;;5060361;28;20068;-84
2023/05/03 06:34:08;;;;;;;15.25;11.55;;;10.40;99.90;;;;;;5042489;28;20063;-85
2023/05/03 06:36:36;;;;;;;16.17;11.38;;;10.50;99.90;;;;;;5026931;28;20049;-84
2023/05/03 06:39:03;;;;;;;16.85;11.93;;;10.60;99.90;;;;;;5047921;28;20049;-84
2023/05/03 06:41:31;;;;;;;15.50;10.80;;;10.70;99.90;;;;;;5025628;28;20520;-83
2023/05/03 06:43:58;;;;;;;18.15;12.18;;;10.80;99.90;;;;;;5041850;28;20051;-85
2023/05/03 06:46:27;;;;;;;14.75;11.02;;;10.90;99.90;;;;;;5026259;28;20048;-84
2023/05/03 06:48:56;;;;;;;15.90;11.95;;;11.10;99.90;;;;;;5022349;28;20046;-83
2023/05/03 06:51:27;;;;;;;14.55;11.98;;;11.20;99.90;;;;;;5040211;28;20124;-84
2023/05/03 06:53:55;;;;;;;15.27;11.35;;;11.30;99.90;;;;;;5017010;28;20056;-83
2023/05/03 06:56:22;;;;;;;15.73;11.80;;;11.40;99.90;;;;;;5027293;28;20064;-84
2023/05/03 06:58:49;;;;;;;16.35;11.32;;;11.50;99.90;;;;;;5028100;28;20052;-84
2023/05/03 07:01:17;;;;;;;14.40;10.60;;;11.60;99.90;;;;;;5022321;28;20575;-85
2023/05/03 07:03:45;;;;;;;13.82;10.43;;;11.70;99.90;;;;;;5045709;28;20124;-85
2023/05/03 07:06:12;;;;;;;16.15;10.50;;;11.90;99.90;;;;;;5024878;28;20049;-86
2023/05/03 07:08:38;;;;;;;13.07;10.35;;;12.00;99.90;;;;;;5040381;28;20057;-85
2023/05/03 07:11:05;;;;;;;13.63;10.32;;;12.10;99.90;;;;;;5032539;28;20079;-84
2023/05/03 07:13:32;;;;;;;14.32;10.48;;;12.30;99.90;;;;;;5028985;28;20613;-84
2023/05/03 07:15:59;;;;;;;13.25;10.68;;;12.30;99.90;;;;;;5016783;23;20478;-77
2023/05/03 07:18:28;;;;;;;16.25;11.25;;;12.40;99.90;;;;;;4991287;28;20061;-77
2023/05/03 07:20:55;;;;;;;17.52;10.80;;;12.50;99.90;;;;;;4993143;28;20050;-76
2023/05/03 07:23:22;;;;;;;14.20;10.13;;;12.40;99.90;;;;;;4990618;28;20130;-77
2023/05/03 07:25:48;;;;;;;13.50;10.25;;;12.50;99.90;;;;;;4975794;28;20043;-76
2023/05/03 07:28:15;;;;;;;15.73;11.30;;;12.50;99.90;;;;;;4971321;28;20418;-76
2023/05/03 07:30:42;;;;;;;13.75;10.25;;;12.50;99.90;;;;;;4970512;28;20138;-76
2023/05/03 07:33:09;;;;;;;16.85;10.85;;;12.60;99.90;;;;;;4971722;28;20055;-76
2023/05/03 07:35:36;;;;;;;16.17;11.98;;;12.50;99.90;;;;;;4969862;28;20043;-77
2023/05/03 07:38:02;;;;;;;16.48;11.23;;;12.50;99.90;;;;;;4968376;28;20058;-77
2023/05/03 07:40:31;;;;;;;15.65;11.50;;;12.50;99.90;;;;;;4971352;28;20053;-76
2023/05/03 07:42:59;;;;;;;15.57;11.27;;;12.40;99.90;;;;;;4970615;28;20074;-77
2023/05/03 07:45:26;;;;;;;16.13;11.20;;;12.30;99.90;;;;;;4970490;28;20062;-77
2023/05/03 07:47:55;;;;;;;13.25;10.90;;;12.10;99.90;;;;;;4971713;28;20049;-77
2023/05/03 07:50:22;;;;;;;17.58;11.75;;;12.00;99.90;;;;;;4969960;28;20057;-76
2023/05/03 07:52:50;;;;;;;14.82;11.63;;;12.10;99.90;;;;;;4984846;28;20059;-77
2023/05/03 07:55:18;;;;;;;16.60;11.32;;;12.20;99.90;;;;;;4966716;28;20046;-77
2023/05/03 07:57:45;;;;;;;13.75;10.63;;;12.20;99.90;;;;;;4966104;28;20058;-76
2023/05/03 08:00:12;;;;;;;16.00;11.52;;;12.30;99.90;;;;;;4966379;28;20051;-77
2023/05/03 08:02:39;;;;;;;14.95;11.20;;;12.40;99.90;;;;;;4969842;28;20043;-77
2023/05/03 08:05:08;;;;;;;15.98;11.40;;;12.40;99.90;;;;;;4971449;28;20054;-77
2023/05/03 08:07:35;;;;;;;19.30;12.73;;;12.40;99.90;;;;;;4964906;28;20118;-77
2023/05/03 08:10:02;;;;;;;18.17;11.85;;;12.30;99.90;;;;;;4969605;28;20057;-76
2023/05/03 08:12:29;;;;;;;18.88;11.88;;;12.40;99.90;;;;;;4973119;28;20057;-79
2023/05/03 08:14:55;;;;;;;23.75;11.80;;;12.40;99.90;;;;;;4974454;28;20050;-77
2023/05/03 08:17:22;;;;;;;15.18;11.48;;;12.30;99.90;;;;;;4978747;28;20507;-75
2023/05/03 08:19:49;;;;;;;19.10;12.20;;;12.20;99.90;;;;;;4974565;28;20047;-76
2023/05/03 08:22:16;;;;;;;16.58;12.65;;;12.20;99.90;;;;;;4969066;28;20050;-77
2023/05/03 08:24:43;;;;;;;16.92;12.43;;;12.10;99.90;;;;;;4969079;28;20047;-77
2023/05/03 08:27:11;;;;;;;14.88;11.73;;;12.00;99.90;;;;;;4974062;28;20054;-77
2023/05/03 08:29:38;;;;;;;16.10;11.38;;;12.00;99.90;;;;;;4974133;28;20043;-77
2023/05/03 08:32:04;;;;;;;16.15;12.13;;;12.00;99.90;;;;;;4973054;28;20058;-77
2023/05/03 08:34:31;;;;;;;17.42;12.60;;;12.10;99.90;;;;;;4969118;28;20085;-77
2023/05/03 08:36:58;;;;;;;18.40;13.02;;;12.10;99.90;;;;;;4986409;28;20331;-77
2023/05/03 08:39:25;;;;;;;17.70;12.30;;;12.10;99.90;;;;;;4973191;28;20050;-78
2023/05/03 08:41:53;;;;;;;15.73;11.80;;;12.00;99.90;;;;;;4973412;28;20042;-77
2023/05/03 08:44:24;;;;;;;18.17;11.98;;;12.00;99.90;;;;;;4973741;28;20511;-77
2023/05/03 08:46:51;;;;;;;15.07;11.95;;;12.00;99.90;;;;;;4976564;28;20047;-77
2023/05/03 08:49:18;;;;;;;20.63;12.05;;;12.00;99.90;;;;;;4973642;28;20047;-77
2023/05/03 08:51:47;;;;;;;18.83;12.50;;;12.00;99.90;;;;;;4971649;28;20057;-77
2023/05/03 08:54:14;;;;;;;22.65;13.35;;;12.00;99.90;;;;;;4972014;28;20537;-76
2023/05/03 08:56:42;;;;;;;21.17;12.77;;;12.10;99.90;;;;;;4972933;28;20082;-77
2023/05/03 08:59:10;;;;;;;18.65;13.27;;;12.10;99.90;;;;;;4969981;28;20149;-77
2023/05/03 09:01:38;;;;;;;20.50;13.48;;;12.10;99.90;;;;;;4972569;28;20055;-77
2023/05/03 09:04:06;;;;;;;16.17;12.30;;;12.10;99.90;;;;;;4973897;28;20102;-78
2023/05/03 09:06:34;;;;;;;18.20;13.38;;;12.10;99.90;;;;;;4969255;28;20042;-77
2023/05/03 09:09:07;;;;;;;17.65;13.65;;;12.30;99.90;;;;;;4971871;28;20043;-77
2023/05/03 09:11:36;;;;;;;22.17;13.05;;;12.40;99.90;;;;;;4974890;28;20055;-77
2023/05/03 09:14:15;;;;;;;19.02;12.70;;;12.40;99.90;;;;;;4977061;28;20054;-77
2023/05/03 09:16:43;;;;;;;18.67;12.98;;;12.50;99.90;;;;;;4976336;28;20047;-76
2023/05/03 09:19:11;;;;;;;17.73;13.05;;;12.60;99.90;;;;;;4992044;28;20094;-77
2023/05/03 09:21:43;;;;;;;17.27;12.82;;;12.60;99.90;;;;;;4976329;28;20482;-76
2023/05/03 09:24:16;;;;;;;17.50;12.65;;;12.60;99.90;;;;;;4973641;28;20069;-77
2023/05/03 09:26:45;;;;;;;19.23;13.15;;;12.70;99.90;;;;;;4977407;28;20129;-77
2023/05/03 09:29:33;;;;;;;23.48;12.93;;;12.70;99.90;;;;;;4977603;28;20047;-78
2023/05/03 09:32:03;;;;;;;22.05;13.15;;;12.80;99.90;;;;;;4973460;28;20158;-77
2023/05/03 09:34:30;;;;;;;;;;;12.90;99.90;;;;;;4977347;28;20058;-77
2023/05/03 09:36:57;;;;;;;20.75;12.77;;;12.90;99.90;;;;;;4976276;28;19945;-78
2023/05/03 09:39:24;;;;;;;17.00;13.63;;;13.00;99.90;;;;;;4977168;28;20055;-76
2023/05/03 09:41:51;;;;;;;18.00;12.85;;;13.00;99.90;;;;;;4990509;28;20121;-77
2023/05/03 09:44:17;;;;;;;18.33;14.27;;;13.10;99.90;;;;;;4975452;28;20054;-77
2023/05/03 09:47:03;;;;;;;19.38;13.45;;;13.10;99.90;;;;;;4975170;28;20422;-77
2023/05/03 09:49:35;;;;;;;19.95;14.10;;;13.20;99.90;;;;;;4973373;28;20051;-83
2023/05/03 09:52:02;;;;;;;19.50;13.75;;;13.20;99.90;;;;;;4976609;28;20051;-78
2023/05/03 09:54:34;;;;;;;15.40;12.57;;;13.30;99.90;;;;;;4977453;28;20549;-77
2023/05/03 09:57:04;;;;;;;17.75;13.50;;;13.40;99.90;;;;;;4980943;28;20046;-79
2023/05/03 09:59:36;;;;;;;19.70;13.43;;;13.40;99.90;;;;;;4981765;28;20078;-80
2023/05/03 10:02:06;;;;;;;18.65;13.52;;;13.40;99.90;;;;;;4979215;28;20117;-79
2023/05/03 10:04:43;;;;;;;21.58;13.23;;;13.50;99.90;;;;;;4975254;28;20042;-78
2023/05/03 10:07:16;;;;;;;19.55;13.45;;;13.50;99.90;;;;;;4973360;28;20051;-80
2023/05/03 10:09:46;;;;;;;17.85;13.48;;;13.60;99.90;;;;;;4973363;28;20047;-79
2023/05/03 10:12:16;;;;;;;20.25;12.95;;;13.70;99.90;;;;;;4980615;28;20078;-78
2023/05/03 10:14:45;;;;;;;20.00;13.60;;;13.80;99.90;;;;;;4975667;28;20058;-79
2023/05/03 10:17:27;;;;;;;22.77;13.60;;;13.80;99.90;;;;;;4981822;28;20687;-79
2023/05/03 10:20:18;;;;;;;17.17;13.82;;;13.90;99.90;;;;;;4977245;28;20133;-79
2023/05/03 10:23:03;;;;;;;19.90;13.80;;;14.00;99.90;;;;;;4978288;28;20054;-79
2023/05/03 10:25:33;;;;;;;18.17;13.18;;;14.10;99.90;;;;;;4973066;28;20138;-77
2023/05/03 10:28:04;;;;;;;18.13;13.65;;;14.10;99.90;;;;;;4975402;28;20050;-80
2023/05/03 10:30:34;;;;;;;23.60;13.18;;;14.20;99.90;;;;;;4978359;28;20049;-80
2023/05/03 10:33:27;;;;;;;16.73;13.02;;;14.30;99.90;;;;;;4976058;28;20189;-78
2023/05/03 10:35:54;;;;;;;19.77;13.02;;;14.40;99.90;;;;;;4977312;28;20051;-78
2023/05/03 10:38:26;;;;;;;21.15;11.70;;;14.40;99.90;;;;;;4974270;28;20050;-78
2023/05/03 10:40:54;;;;;;;18.27;11.02;;;14.50;99.90;;;;;;4975796;28;20114;-79
2023/05/03 10:43:30;;;;;;;12.73;10.38;;;14.70;99.90;;;;;;4975158;28;20054;-77
2023/05/03 10:45:58;;;;;;;15.70;11.32;;;14.80;99.90;;;;;;4972547;28;20052;-80
2023/05/03 10:48:25;;;;;;;13.63;11.30;;;14.90;99.90;;;;;;4974640;28;20074;-79
2023/05/03 10:50:52;;;;;;;12.82;10.15;;;15.00;99.90;;;;;;4975666;28;20051;-80
2023/05/03 10:53:35;;;;;;;14.35;10.10;;;15.20;99.90;;;;;;4979819;28;20086;-80
2023/05/03 10:56:06;;;;;;;16.80;11.20;;;15.30;99.90;;;;;;4973256;28;20577;-79
2023/05/03 10:58:49;;;;;;;11.43;9.55;;;15.40;99.90;;;;;;4976958;28;20140;-79
2023/05/03 11:01:17;;;;;;;17.25;9.93;;;15.40;99.90;;;;;;4974820;28;20054;-77
2023/05/03 11:03:54;;;;;;;13.82;9.88;;;15.50;99.90;;;;;;4971786;28;20595;-78
2023/05/03 11:06:32;;;;;;;11.63;9.85;;;15.50;99.90;;;;;;4973230;28;20050;-77
2023/05/03 11:08:59;;;;;;;12.32;9.07;;;15.70;99.90;;;;;;4971749;28;20053;-77
2023/05/03 11:11:26;;;;;;;12.40;9.13;;;15.70;99.90;;;;;;4974495;28;20054;-76
2023/05/03 11:13:53;;;;;;;13.50;8.75;;;15.80;99.90;;;;;;4974910;28;20051;-77
2023/05/03 11:16:20;;;;;;;14.15;8.95;;;15.80;99.90;;;;;;4972490;28;20051;-77
2023/05/03 11:18:47;;;;;;;13.25;9.32;;;15.90;99.90;;;;;;4973382;28;20418;-77
2023/05/03 11:21:17;;;;;;;12.45;8.27;;;16.00;99.90;;;;;;4977135;28;20050;-77
2023/05/03 11:23:44;;;;;;;11.05;8.00;;;16.00;99.90;;;;;;4977845;28;20050;-77
2023/05/03 11:26:13;;;;;;;9.52;7.55;;;16.10;99.90;;;;;;4971966;28;20050;-77
2023/05/03 11:28:41;;;;;;;10.73;8.25;;;16.20;99.90;;;;;;4974739;28;20057;-77
2023/05/03 11:31:09;;;;;;;11.60;8.57;;;16.20;99.90;;;;;;4973764;28;20047;-78
2023/05/03 11:33:37;;;;;;;11.50;7.90;;;16.30;99.90;;;;;;4973626;28;20053;-77
2023/05/03 11:36:06;;;;;;;11.20;7.95;;;16.30;99.90;;;;;;4973724;28;20057;-76
2023/05/03 11:38:33;;;;;;;10.93;8.38;;;16.30;99.90;;;;;;4970264;28;20047;-77
2023/05/03 11:41:08;;;;;;;11.48;8.30;;;16.40;99.90;;;;;;4973978;28;20610;-77
2023/05/03 11:43:40;;;;;;;12.90;9.07;;;16.40;99.90;;;;;;4973484;28;20081;-75
2023/05/03 11:46:08;;;;;;;8.77;7.13;;;16.50;99.90;;;;;;4973834;28;20065;-77
2023/05/03 11:48:36;;;;;;;13.00;7.63;;;16.50;99.90;;;;;;4973951;28;20569;-77
2023/05/03 11:51:08;;;;;;;11.23;7.18;;;16.50;99.90;;;;;;4970561;28;20051;-77
2023/05/03 11:53:38;;;;;;;11.70;7.68;;;16.50;99.90;;;;;;4973677;28;20081;-77
2023/05/03 11:56:07;;;;;;;7.65;5.85;;;16.60;99.90;;;;;;4969794;28;20475;-77
2023/05/03 11:58:34;;;;;;;8.02;6.22;;;16.70;99.90;;;;;;4973925;28;20548;-77
2023/05/03 12:01:02;;;;;;;11.75;8.05;;;16.70;99.90;;;;;;4973652;28;20051;-77
2023/05/03 12:03:34;;;;;;;7.85;6.30;;;16.90;99.90;;;;;;4973447;28;20047;-77
2023/05/03 12:06:02;;;;;;;11.88;7.05;;;16.90;99.90;;;;;;4972609;28;20138;-77
2023/05/03 12:08:32;;;;;;;10.70;6.80;;;16.90;99.90;;;;;;4969804;28;20046;-76
2023/05/03 12:11:05;;;;;;;6.88;5.75;;;17.00;99.90;;;;;;4973228;28;20521;-77
2023/05/03 12:13:36;;;;;;;9.60;5.40;;;17.00;99.90;;;;;;4969764;28;20042;-77
2023/05/03 12:16:08;;;;;;;7.57;5.97;;;17.10;99.90;;;;;;4973031;28;20101;-77
2023/05/03 12:18:48;;;;;;;7.82;5.70;;;17.10;99.90;;;;;;4968083;28;20042;-77
2023/05/03 12:21:17;;;;;;;7.90;5.28;;;17.20;99.90;;;;;;4975275;28;20055;-77
2023/05/03 12:23:50;;;;;;;10.35;5.80;;;17.20;99.90;;;;;;4970216;28;20062;-77
2023/05/03 12:26:23;;;;;;;9.60;5.47;;;17.30;99.90;;;;;;4973500;28;20085;-77
2023/05/03 12:28:50;;;;;;;6.63;4.97;;;17.30;99.90;;;;;;4973235;28;20122;-77
2023/05/03 12:31:21;;;;;;;;;;;17.40;99.90;;;;;;4973585;28;20111;-76
2023/05/03 12:33:48;;;;;;;9.13;4.75;;;17.40;99.90;;;;;;4972847;28;19949;-76
2023/05/03 12:36:36;;;;;;;5.93;4.07;;;17.50;99.90;;;;;;4972711;28;20065;-77
2023/05/03 12:39:04;;;;;;;6.88;4.18;;;17.60;99.90;;;;;;4972337;28;20131;-77
2023/05/03 12:41:35;;;;;;;5.15;3.92;;;17.70;99.90;;;;;;4973099;28;20049;-77
2023/05/03 12:44:05;;;;;;;4.70;4.18;;;17.80;99.90;;;;;;4972123;28;20430;-77
2023/05/03 12:46:36;;;;;;;4.80;3.47;;;17.80;99.90;;;;;;4973285;28;20057;-76